createdAt,value
2018-03-24T00:01:41.338Z,5.72
2018-03-24T00:02:40.583Z,5.66
2018-03-24T00:04:33.541Z,5.69
2018-03-24T00:05:33.477Z,5.54
2018-03-24T00:07:27.823Z,5.48
2018-03-24T00:08:27.431Z,5.47
2018-03-24T00:10:20.852Z,5.37
2018-03-24T00:11:20.796Z,5.40
2018-03-24T00:13:15.540Z,5.44
2018-03-24T00:14:14.699Z,5.47
2018-03-24T00:16:10.016Z,5.41
2018-03-24T00:17:09.090Z,5.39
2018-03-24T00:19:02.777Z,5.37
2018-03-24T00:20:02.415Z,5.30
2018-03-24T00:21:55.866Z,5.32
2018-03-24T00:22:55.788Z,5.33
2018-03-24T00:24:50.038Z,5.36
2018-03-24T00:25:49.974Z,5.29
2018-03-24T00:27:43.712Z,5.34
2018-03-24T00:28:43.391Z,5.25
2018-03-24T00:30:36.871Z,5.16
2018-03-24T00:31:36.733Z,5.21
2018-03-24T00:33:30.124Z,5.15
2018-03-24T00:34:30.090Z,5.14
2018-03-24T00:36:23.568Z,5.00
2018-03-24T00:37:23.469Z,5.04
2018-03-24T00:39:16.921Z,4.94
2018-03-24T00:40:16.841Z,4.86
2018-03-24T00:42:10.327Z,4.79
2018-03-24T00:43:10.203Z,4.86
2018-03-24T00:45:03.609Z,4.82
2018-03-24T00:46:03.595Z,4.85
2018-03-24T00:47:56.922Z,4.77
2018-03-24T00:48:56.881Z,4.69
2018-03-24T00:50:54.361Z,4.63
2018-03-24T00:51:51.096Z,4.56
2018-03-24T00:53:45.050Z,4.48
2018-03-24T00:54:44.440Z,4.46
2018-03-24T00:56:37.843Z,4.51
2018-03-24T00:57:37.782Z,4.48
2018-03-24T00:59:31.540Z,4.38
2018-03-24T01:00:31.167Z,4.45
2018-03-24T01:02:24.758Z,4.38
2018-03-24T01:03:24.556Z,4.26
2018-03-24T01:05:20.472Z,4.27
2018-03-24T01:06:19.410Z,4.38
2018-03-24T01:08:13.675Z,4.31
2018-03-24T01:09:12.860Z,4.26
2018-03-24T01:11:07.759Z,4.21
2018-03-24T01:12:07.187Z,4.23
2018-03-24T01:14:00.913Z,4.21
2018-03-24T01:15:00.114Z,4.10
2018-03-24T01:16:53.055Z,4.12
2018-03-24T01:17:53.281Z,4.06
2018-03-24T01:19:46.723Z,4.02
2018-03-24T01:20:46.326Z,3.96
2018-03-24T01:22:51.884Z,3.99
2018-03-24T01:23:52.820Z,3.94
2018-03-24T01:25:46.038Z,3.96
2018-03-24T01:26:45.134Z,3.91
2018-03-24T01:28:38.667Z,3.98
2018-03-24T01:29:38.471Z,3.88
2018-03-24T01:31:32.854Z,3.88
2018-03-24T01:32:32.953Z,3.82
2018-03-24T01:34:26.251Z,3.88
2018-03-24T01:35:26.272Z,3.91
2018-03-24T01:37:23.154Z,3.84
2018-03-24T01:38:22.083Z,3.84
2018-03-24T01:40:15.546Z,3.84
2018-03-24T01:41:15.478Z,3.84
2018-03-24T01:43:08.867Z,3.94
2018-03-24T01:44:08.828Z,3.82
2018-03-24T01:46:02.258Z,3.76
2018-03-24T01:47:02.222Z,3.82
2018-03-24T01:48:59.697Z,3.82
2018-03-24T01:49:58.104Z,3.87
2018-03-24T01:51:51.615Z,3.72
2018-03-24T01:52:51.442Z,3.70
2018-03-24T01:54:44.888Z,3.78
2018-03-24T01:55:44.785Z,3.67
2018-03-24T01:57:37.706Z,3.82
2018-03-24T01:58:38.239Z,3.81
2018-03-24T02:00:31.013Z,3.90
2018-03-24T02:01:30.987Z,3.73
2018-03-24T02:03:24.393Z,3.84
2018-03-24T02:04:24.379Z,3.70
2018-03-24T02:06:18.712Z,3.76
2018-03-24T02:07:18.680Z,3.64
2018-03-24T02:09:12.130Z,3.72
2018-03-24T02:10:12.154Z,3.69
2018-03-24T02:12:05.533Z,3.70
2018-03-24T02:13:05.447Z,3.82
2018-03-24T02:14:58.921Z,3.76
2018-03-24T02:15:59.365Z,3.76
2018-03-24T02:17:53.799Z,3.80
2018-03-24T02:18:53.189Z,3.63
2018-03-24T02:20:46.908Z,3.74
2018-03-24T02:21:46.545Z,3.69
2018-03-24T02:23:40.016Z,3.69
2018-03-24T02:24:39.895Z,3.80
2018-03-24T02:26:33.123Z,3.73
2018-03-24T02:27:33.049Z,3.80
2018-03-24T02:29:26.028Z,3.80
2018-03-24T02:30:25.893Z,3.70
2018-03-24T02:32:19.295Z,3.80
2018-03-24T02:33:19.270Z,3.66
2018-03-24T02:35:12.678Z,3.78
2018-03-24T02:36:12.654Z,3.76
2018-03-24T02:38:06.121Z,3.63
2018-03-24T02:39:06.561Z,3.64
2018-03-24T02:40:59.382Z,3.62
2018-03-24T02:41:59.330Z,3.64
2018-03-24T02:43:55.304Z,3.46
2018-03-24T02:44:55.202Z,3.52
2018-03-24T02:46:48.584Z,3.54
2018-03-24T02:47:48.567Z,3.46
2018-03-24T02:49:41.466Z,3.45
2018-03-24T02:50:41.557Z,3.32
2018-03-24T02:52:34.382Z,3.30
2018-03-24T02:53:34.316Z,3.29
2018-03-24T02:55:27.920Z,3.32
2018-03-24T02:56:27.627Z,3.30
2018-03-24T02:58:21.034Z,3.30
2018-03-24T02:59:21.009Z,3.37
2018-03-24T03:01:13.920Z,3.32
2018-03-24T03:02:13.831Z,3.33
2018-03-24T03:04:07.427Z,3.27
2018-03-24T03:05:07.213Z,3.15
2018-03-24T03:07:02.117Z,3.20
2018-03-24T03:08:01.097Z,3.17
2018-03-24T03:09:55.588Z,3.18
2018-03-24T03:10:56.029Z,3.12
2018-03-24T03:12:48.855Z,3.11
2018-03-24T03:13:48.811Z,3.12
2018-03-24T03:15:42.233Z,3.15
2018-03-24T03:16:42.158Z,3.15
2018-03-24T03:18:36.549Z,3.02
2018-03-24T03:19:36.514Z,2.97
2018-03-24T03:21:29.915Z,2.99
2018-03-24T03:22:29.862Z,3.04
2018-03-24T03:24:22.746Z,3.04
2018-03-24T03:25:23.288Z,3.07
2018-03-24T03:27:16.102Z,3.02
2018-03-24T03:28:16.046Z,2.96
2018-03-24T03:30:09.181Z,2.93
2018-03-24T03:31:08.911Z,2.96
2018-03-24T03:33:02.507Z,2.97
2018-03-24T03:34:02.247Z,3.02
2018-03-24T03:35:55.369Z,3.07
2018-03-24T03:36:55.131Z,2.97
2018-03-24T03:38:48.703Z,2.90
2018-03-24T03:39:48.476Z,2.96
2018-03-24T03:41:41.862Z,3.02
2018-03-24T03:42:41.808Z,3.02
2018-03-24T03:44:35.505Z,2.99
2018-03-24T03:45:35.144Z,3.04
2018-03-24T03:47:28.543Z,3.08
2018-03-24T03:48:28.500Z,3.00
2018-03-24T03:50:22.017Z,3.14
2018-03-24T03:51:21.854Z,3.22
2018-03-24T03:53:15.268Z,3.27
2018-03-24T03:54:15.228Z,3.25
2018-03-24T03:56:08.603Z,3.35
2018-03-24T03:57:08.558Z,3.30
2018-03-24T03:59:01.440Z,3.42
2018-03-24T04:00:01.438Z,3.52
2018-03-24T04:02:07.361Z,3.55
2018-03-24T04:03:07.298Z,3.46
2018-03-24T04:05:00.673Z,3.46
2018-03-24T04:06:00.647Z,3.41
2018-03-24T04:07:54.038Z,3.42
2018-03-24T04:08:53.993Z,3.37
2018-03-24T04:10:47.105Z,3.36
2018-03-24T04:11:46.877Z,3.41
2018-03-24T04:13:40.586Z,3.32
2018-03-24T04:14:40.159Z,3.35
2018-03-24T04:16:33.913Z,3.26
2018-03-24T04:17:33.519Z,3.20
2018-03-24T04:19:26.932Z,3.17
2018-03-24T04:20:26.903Z,3.07
2018-03-24T04:22:20.562Z,3.04
2018-03-24T04:23:20.233Z,3.09
2018-03-24T04:25:13.621Z,3.08
2018-03-24T04:26:13.601Z,2.99
2018-03-24T04:28:06.973Z,3.00
2018-03-24T04:29:06.924Z,2.87
2018-03-24T04:31:00.339Z,2.90
2018-03-24T04:32:00.305Z,2.94
2018-03-24T04:33:53.677Z,2.99
2018-03-24T04:34:53.649Z,2.91
2018-03-24T04:36:47.022Z,2.96
2018-03-24T04:37:46.978Z,2.97
2018-03-24T04:39:40.353Z,2.94
2018-03-24T04:40:40.332Z,2.96
2018-03-24T04:42:33.250Z,2.91
2018-03-24T04:43:33.208Z,2.89
2018-03-24T04:45:27.116Z,2.97
2018-03-24T04:46:26.339Z,2.96
2018-03-24T04:48:19.432Z,2.91
2018-03-24T04:49:19.208Z,3.00
2018-03-24T04:51:12.663Z,2.90
2018-03-24T04:52:12.544Z,2.91
2018-03-24T04:54:06.086Z,2.96
2018-03-24T04:55:05.889Z,2.93
2018-03-24T04:56:59.835Z,2.91
2018-03-24T04:57:59.776Z,2.94
2018-03-24T04:59:52.815Z,2.87
2018-03-24T05:00:55.208Z,3.08
2018-03-24T05:02:46.030Z,3.08
2018-03-24T05:03:45.973Z,3.15
2018-03-24T05:05:39.369Z,3.17
2018-03-24T05:06:39.915Z,3.15
2018-03-24T05:08:33.741Z,3.32
2018-03-24T05:09:33.684Z,3.26
2018-03-24T05:11:27.067Z,3.30
2018-03-24T05:12:27.015Z,3.35
2018-03-24T05:14:20.749Z,3.45
2018-03-24T05:15:20.387Z,3.42
2018-03-24T05:17:14.073Z,3.51
2018-03-24T05:18:16.313Z,3.54
2018-03-24T05:20:07.148Z,3.55
2018-03-24T05:21:07.106Z,3.59
2018-03-24T05:23:00.479Z,3.67
2018-03-24T05:24:00.433Z,3.69
2018-03-24T05:25:53.848Z,3.72
2018-03-24T05:26:53.793Z,3.80
2018-03-24T05:28:48.193Z,3.87
2018-03-24T05:29:48.129Z,3.91
2018-03-24T05:31:41.600Z,3.94
2018-03-24T05:32:40.993Z,4.00
2018-03-24T05:34:34.377Z,3.99
2018-03-24T05:35:34.321Z,4.02
2018-03-24T05:37:27.367Z,4.12
2018-03-24T05:38:27.210Z,4.16
2018-03-24T05:40:20.355Z,4.26
2018-03-24T05:41:20.163Z,4.26
2018-03-24T05:43:12.927Z,4.23
2018-03-24T05:44:12.919Z,4.27
2018-03-24T05:46:06.414Z,4.38
2018-03-24T05:47:06.239Z,4.39
2018-03-24T05:48:59.635Z,4.36
2018-03-24T05:49:59.593Z,4.38
2018-03-24T05:51:52.494Z,4.59
2018-03-24T05:52:52.466Z,4.48
2018-03-24T05:54:45.323Z,4.53
2018-03-24T05:55:45.303Z,4.66
2018-03-24T05:57:38.258Z,4.71
2018-03-24T05:58:38.151Z,4.69
2018-03-24T06:00:31.063Z,4.78
2018-03-24T06:01:31.011Z,4.89
2018-03-24T06:03:23.892Z,4.85
2018-03-24T06:04:24.452Z,4.83
2018-03-24T06:06:17.594Z,4.82
2018-03-24T06:07:17.212Z,4.88
2018-03-24T06:09:10.877Z,4.85
2018-03-24T06:10:10.565Z,4.85
2018-03-24T06:12:04.054Z,5.00
2018-03-24T06:13:03.895Z,4.96
2018-03-24T06:14:56.796Z,4.98
2018-03-24T06:15:56.755Z,4.96
2018-03-24T06:17:49.719Z,5.07
2018-03-24T06:18:49.612Z,5.03
2018-03-24T06:20:43.086Z,4.93
2018-03-24T06:21:43.000Z,4.97
2018-03-24T06:23:36.592Z,5.00
2018-03-24T06:24:35.814Z,4.98
2018-03-24T06:26:28.744Z,5.12
2018-03-24T06:27:28.680Z,5.06
2018-03-24T06:29:21.647Z,5.06
2018-03-24T06:30:21.525Z,5.03
2018-03-24T06:32:14.412Z,5.07
2018-03-24T06:33:14.382Z,5.06
2018-03-24T06:35:07.413Z,5.19
2018-03-24T06:36:07.244Z,5.12
2018-03-24T06:38:00.363Z,5.30
2018-03-24T06:39:00.136Z,5.30
2018-03-24T06:40:53.183Z,5.50
2018-03-24T06:41:52.956Z,5.51
2018-03-24T06:43:46.551Z,5.65
2018-03-24T06:44:46.402Z,5.65
2018-03-24T06:46:39.374Z,5.75
2018-03-24T06:47:39.185Z,5.84
2018-03-24T06:49:32.766Z,5.93
2018-03-24T06:50:32.569Z,6.03
2018-03-24T06:52:26.204Z,6.15
2018-03-24T06:53:25.901Z,6.15
2018-03-24T06:55:18.777Z,6.27
2018-03-24T06:56:18.749Z,6.42
2018-03-24T06:58:11.708Z,6.47
2018-03-24T06:59:11.627Z,6.43
2018-03-24T07:01:07.060Z,6.64
2018-03-24T07:02:05.970Z,6.68
2018-03-24T07:03:59.357Z,6.82
2018-03-24T07:04:59.328Z,6.82
2018-03-24T07:06:52.287Z,6.83
2018-03-24T07:07:52.212Z,6.92
2018-03-24T07:09:45.087Z,6.92
2018-03-24T07:10:45.071Z,6.85
2018-03-24T07:12:38.060Z,7.08
2018-03-24T07:13:37.909Z,7.16
2018-03-24T07:15:31.309Z,7.33
2018-03-24T07:16:31.279Z,7.42
2018-03-24T07:18:24.770Z,7.57
2018-03-24T07:19:24.639Z,7.54
2018-03-24T07:21:18.276Z,7.77
2018-03-24T07:22:18.011Z,7.74
2018-03-24T07:24:10.900Z,7.94
2018-03-24T07:25:10.858Z,8.01
2018-03-24T07:27:04.548Z,8.04
2018-03-24T07:28:04.570Z,8.24
2018-03-24T07:29:57.633Z,8.34
2018-03-24T07:30:57.819Z,8.38
2018-03-24T07:32:50.504Z,8.44
2018-03-24T07:33:51.010Z,8.55
2018-03-24T07:35:43.573Z,8.52
2018-03-24T07:36:43.353Z,8.68
2018-03-24T07:38:36.813Z,8.75
2018-03-24T07:39:36.231Z,8.70
2018-03-24T07:41:29.345Z,8.85
2018-03-24T07:42:29.065Z,8.95
2018-03-24T07:44:22.203Z,9.01
2018-03-24T07:45:21.972Z,9.11
2018-03-24T07:47:14.854Z,9.19
2018-03-24T07:48:14.800Z,9.27
2018-03-24T07:50:08.594Z,9.29
2018-03-24T07:51:08.152Z,9.42
2018-03-24T07:53:01.347Z,9.54
2018-03-24T07:54:01.045Z,9.47
2018-03-24T07:55:54.608Z,9.67
2018-03-24T07:56:54.379Z,9.77
2018-03-24T07:58:47.577Z,9.84
2018-03-24T07:59:47.256Z,9.96
2018-03-24T08:01:40.223Z,10.03
2018-03-24T08:02:40.157Z,9.94
2018-03-24T08:04:33.584Z,10.12
2018-03-24T08:05:33.516Z,10.03
2018-03-24T08:07:26.906Z,9.85
2018-03-24T08:08:26.856Z,9.83
2018-03-24T08:10:20.539Z,9.94
2018-03-24T08:11:20.247Z,10.05
2018-03-24T08:13:13.990Z,9.99
2018-03-24T08:14:14.178Z,9.98
2018-03-24T08:16:06.833Z,10.08
2018-03-24T08:17:06.451Z,10.02
2018-03-24T08:18:59.365Z,10.10
2018-03-24T08:19:59.340Z,10.06
2018-03-24T08:21:53.086Z,9.98
2018-03-24T08:22:52.690Z,9.99
2018-03-24T08:24:46.370Z,10.01
2018-03-24T08:25:46.070Z,10.10
2018-03-24T08:27:39.446Z,10.17
2018-03-24T08:28:39.396Z,10.14
2018-03-24T08:30:32.513Z,10.27
2018-03-24T08:31:32.276Z,10.26
2018-03-24T08:33:25.165Z,10.52
2018-03-24T08:34:25.151Z,10.65
2018-03-24T08:36:18.055Z,10.72
2018-03-24T08:37:18.011Z,10.78
2018-03-24T08:39:11.475Z,10.90
2018-03-24T08:40:11.376Z,10.87
2018-03-24T08:42:04.804Z,10.90
2018-03-24T08:43:04.757Z,10.90
2018-03-24T08:44:58.129Z,10.90
2018-03-24T08:45:58.684Z,10.91
2018-03-24T08:47:52.057Z,10.87
2018-03-24T08:48:51.535Z,10.82
2018-03-24T08:50:43.967Z,10.87
2018-03-24T08:51:43.938Z,10.87
2018-03-24T08:53:36.857Z,10.82
2018-03-24T08:54:37.402Z,10.86
2018-03-24T08:56:30.691Z,10.72
2018-03-24T08:57:30.207Z,10.62
2018-03-24T08:59:23.821Z,10.64
2018-03-24T09:00:23.541Z,10.73
2018-03-24T09:02:17.277Z,10.70
2018-03-24T09:03:16.932Z,10.72
2018-03-24T09:05:09.921Z,10.70
2018-03-24T09:06:09.923Z,10.64
2018-03-24T09:08:03.007Z,10.67
2018-03-24T09:09:02.786Z,10.58
2018-03-24T09:10:58.053Z,10.58
2018-03-24T09:11:57.137Z,10.72
2018-03-24T09:13:50.341Z,10.68
2018-03-24T09:14:50.000Z,10.73
2018-03-24T09:16:43.759Z,10.70
2018-03-24T09:17:43.377Z,10.76
2018-03-24T09:19:37.063Z,10.78
2018-03-24T09:20:36.801Z,10.79
2018-03-24T09:22:29.638Z,10.91
2018-03-24T09:23:29.581Z,10.87
2018-03-24T09:25:22.798Z,11.00
2018-03-24T09:26:22.475Z,11.08
2018-03-24T09:28:15.860Z,11.13
2018-03-24T09:29:15.823Z,11.18
2018-03-24T09:31:09.466Z,11.18
2018-03-24T09:32:09.179Z,11.19
2018-03-24T09:34:02.076Z,11.30
2018-03-24T09:35:02.088Z,11.31
2018-03-24T09:36:55.757Z,11.41
2018-03-24T09:37:55.437Z,11.45
2018-03-24T09:39:48.816Z,11.49
2018-03-24T09:40:49.376Z,11.56
2018-03-24T09:42:41.760Z,11.71
2018-03-24T09:43:41.681Z,11.79
2018-03-24T09:45:34.535Z,11.76
2018-03-24T09:46:34.529Z,11.80
2018-03-24T09:48:27.761Z,11.87
2018-03-24T09:49:27.386Z,11.89
2018-03-24T09:51:21.045Z,11.96
2018-03-24T09:52:20.737Z,11.82
2018-03-24T09:57:26.098Z,11.46
2018-03-24T09:58:17.860Z,11.31
2018-03-24T10:00:10.922Z,11.31
2018-03-24T10:01:10.520Z,11.28
2018-03-24T10:03:03.363Z,11.15
2018-03-24T10:04:03.382Z,11.12
2018-03-24T10:05:57.393Z,11.23
2018-03-24T10:06:57.774Z,11.31
2018-03-24T10:08:50.070Z,11.30
2018-03-24T10:09:52.174Z,11.33
2018-03-24T10:11:43.310Z,11.33
2018-03-24T10:12:43.049Z,11.46
2018-03-24T10:14:36.635Z,11.46
2018-03-24T10:15:36.408Z,11.56
2018-03-24T10:17:30.145Z,11.70
2018-03-24T10:18:30.025Z,11.66
2018-03-24T10:20:22.906Z,11.58
2018-03-24T10:21:22.647Z,11.55
2018-03-24T10:23:15.537Z,11.59
2018-03-24T10:24:15.701Z,11.62
2018-03-24T10:26:08.941Z,11.61
2018-03-24T10:27:09.447Z,11.61
2018-03-24T10:29:02.758Z,11.66
2018-03-24T10:30:02.706Z,11.55
2018-03-24T10:32:00.124Z,11.61
2018-03-24T10:34:08.956Z,11.64
2018-03-24T10:35:08.616Z,11.76
2018-03-24T10:37:02.051Z,11.54
2018-03-24T10:38:01.936Z,11.45
2018-03-24T10:39:55.752Z,11.54
2018-03-24T10:40:56.033Z,11.55
2018-03-24T10:42:48.872Z,11.56
2018-03-24T10:43:48.569Z,11.69
2018-03-24T10:45:46.862Z,11.49
2018-03-24T10:46:41.384Z,11.52
2018-03-24T10:48:34.694Z,11.52
2018-03-24T10:49:34.349Z,11.58
2018-03-24T10:51:27.221Z,11.62
2018-03-24T10:52:27.240Z,11.45
2018-03-24T10:54:20.336Z,11.59
2018-03-24T10:55:20.029Z,11.62
2018-03-24T10:57:13.413Z,11.61
2018-03-24T10:58:13.374Z,11.71
2018-03-24T11:00:06.816Z,11.80
2018-03-24T11:01:06.776Z,11.84
2018-03-24T11:03:00.173Z,11.88
2018-03-24T11:04:00.133Z,11.82
2018-03-24T11:05:53.515Z,11.84
2018-03-24T11:06:53.485Z,11.88
2018-03-24T11:08:46.412Z,12.04
2018-03-24T11:09:46.365Z,12.03
2018-03-24T11:11:39.270Z,11.97
2018-03-24T11:12:39.253Z,11.99
2018-03-24T11:14:32.140Z,11.95
2018-03-24T11:15:32.123Z,11.89
2018-03-24T11:17:25.505Z,12.03
2018-03-24T11:18:25.476Z,12.00
2018-03-24T11:20:18.903Z,11.97
2018-03-24T11:21:18.882Z,11.93
2018-03-24T11:23:13.270Z,11.97
2018-03-24T11:24:12.217Z,12.00
2018-03-24T11:26:05.313Z,12.07
2018-03-24T11:27:05.110Z,11.99
2018-03-24T11:28:58.160Z,12.03
2018-03-24T11:29:58.005Z,12.08
2018-03-24T11:31:50.936Z,12.10
2018-03-24T11:32:50.902Z,12.11
2018-03-24T11:34:44.075Z,12.14
2018-03-24T11:35:43.756Z,12.14
2018-03-24T11:37:36.846Z,12.04
2018-03-24T11:38:39.476Z,12.08
2018-03-24T11:40:29.814Z,12.04
2018-03-24T11:41:29.523Z,12.04
2018-03-24T11:43:58.842Z,12.07
2018-03-24T11:47:08.395Z,12.08
2018-03-24T11:48:10.441Z,12.14
2018-03-24T11:50:01.610Z,12.18
2018-03-24T11:51:01.228Z,12.26
2018-03-24T11:52:54.636Z,12.38
2018-03-24T11:53:54.595Z,12.44
2018-03-24T11:55:47.768Z,12.47
2018-03-24T11:56:47.481Z,12.61
2018-03-24T11:58:40.904Z,12.69
2018-03-24T11:59:40.833Z,12.66
2018-03-24T12:01:33.735Z,12.65
2018-03-24T12:02:33.823Z,12.68
2018-03-24T12:04:26.649Z,12.79
2018-03-24T12:05:26.582Z,12.93
2018-03-24T12:07:19.963Z,12.91
2018-03-24T12:08:19.933Z,12.86
2018-03-24T12:10:13.023Z,12.99
2018-03-24T12:11:12.874Z,12.98
2018-03-24T12:13:06.200Z,13.01
2018-03-24T12:14:06.333Z,13.02
2018-03-24T12:15:59.999Z,12.91
2018-03-24T12:16:59.412Z,12.81
2018-03-24T12:18:52.272Z,12.63
2018-03-24T12:19:52.254Z,12.63
2018-03-24T12:21:45.711Z,12.66
2018-03-24T12:22:45.645Z,12.69
2018-03-24T12:24:38.621Z,12.68
2018-03-24T12:25:38.519Z,12.76
2018-03-24T12:27:31.426Z,12.63
2018-03-24T12:28:31.379Z,12.65
2018-03-24T12:30:25.086Z,12.63
2018-03-24T12:31:24.248Z,12.83
2018-03-24T12:33:17.958Z,12.93
2018-03-24T12:34:17.630Z,12.96
2018-03-24T12:36:11.109Z,13.13
2018-03-24T12:37:11.070Z,13.21
2018-03-24T12:39:04.910Z,13.30
2018-03-24T12:40:04.474Z,13.46
2018-03-24T12:41:58.162Z,13.60
2018-03-24T12:42:58.461Z,13.54
2018-03-24T12:44:52.374Z,13.54
2018-03-24T12:45:51.190Z,13.60
2018-03-24T12:47:45.339Z,13.67
2018-03-24T12:48:45.028Z,13.73
2018-03-24T12:50:39.960Z,13.80
2018-03-24T12:51:39.188Z,13.78
2018-03-24T12:53:35.700Z,13.98
2018-03-24T12:54:32.990Z,13.98
2018-03-24T12:56:26.344Z,14.05
2018-03-24T12:57:28.986Z,14.08
2018-03-24T12:59:20.316Z,13.98
2018-03-24T13:00:19.347Z,13.75
2018-03-24T13:02:14.381Z,13.67
2018-03-24T13:03:14.424Z,13.75
2018-03-24T13:05:06.665Z,13.71
2018-03-24T13:06:06.338Z,13.75
2018-03-24T13:08:03.931Z,13.79
2018-03-24T13:08:59.654Z,13.71
2018-03-24T13:10:53.146Z,13.68
2018-03-24T13:11:54.505Z,13.51
2018-03-24T13:13:56.546Z,13.57
2018-03-24T13:14:51.343Z,13.55
2018-03-24T13:16:44.176Z,13.55
2018-03-24T13:17:44.161Z,13.49
2018-03-24T13:19:38.617Z,13.45
2018-03-24T13:20:38.547Z,13.39
2018-03-24T13:22:32.965Z,13.35
2018-03-24T13:23:34.432Z,13.39
2018-03-24T13:25:26.311Z,13.27
2018-03-24T13:26:26.293Z,13.38
2018-03-24T13:28:19.162Z,13.36
2018-03-24T13:29:19.612Z,13.27
2018-03-24T13:31:32.732Z,13.29
2018-03-24T13:32:13.550Z,13.32
2018-03-24T13:34:09.925Z,13.35
2018-03-24T13:35:06.618Z,13.36
2018-03-24T13:37:01.985Z,13.38
2018-03-24T13:38:00.793Z,13.32
2018-03-24T13:39:56.251Z,13.36
2018-03-24T13:40:55.900Z,13.36
2018-03-24T13:42:50.860Z,13.27
2018-03-24T13:43:50.213Z,13.27
2018-03-24T13:45:44.914Z,13.24
2018-03-24T13:46:44.430Z,13.21
2018-03-24T13:48:37.601Z,13.17
2018-03-24T13:49:38.050Z,13.23
2018-03-24T13:51:32.438Z,13.24
2018-03-24T13:52:32.591Z,13.27
2018-03-24T13:54:25.154Z,13.23
2018-03-24T13:55:25.294Z,13.23
2018-03-24T13:57:18.703Z,13.08
2018-03-24T13:58:18.199Z,13.06
2018-03-24T14:00:12.703Z,13.04
2018-03-24T14:01:11.597Z,12.99
2018-03-24T14:03:06.256Z,12.87
2018-03-24T14:04:05.091Z,12.90
2018-03-24T14:06:00.296Z,12.87
2018-03-24T14:07:00.065Z,12.93
2018-03-24T14:08:54.049Z,13.05
2018-03-24T14:09:54.067Z,13.02
2018-03-24T14:11:48.622Z,13.11
2018-03-24T14:12:47.889Z,13.06
2018-03-24T14:14:42.287Z,13.14
2018-03-24T14:15:41.820Z,13.11
2018-03-24T14:17:37.160Z,13.13
2018-03-24T14:18:34.558Z,13.08
2018-03-24T14:20:28.992Z,13.19
2018-03-24T14:21:29.030Z,13.04
2018-03-24T14:23:23.755Z,13.04
2018-03-24T14:24:21.744Z,12.95
2018-03-24T14:26:15.232Z,12.77
2018-03-24T14:27:14.722Z,12.77
2018-03-24T14:29:09.406Z,12.91
2018-03-24T14:30:09.079Z,12.91
2018-03-24T14:32:03.409Z,12.76
2018-03-24T14:33:02.445Z,12.73
2018-03-24T14:34:55.982Z,12.69
2018-03-24T14:37:10.363Z,12.65
2018-03-24T14:38:09.297Z,12.80
2018-03-24T14:40:02.259Z,12.68
2018-03-24T14:41:02.207Z,12.63
2018-03-24T14:42:56.124Z,12.66
2018-03-24T14:43:55.133Z,12.61
2018-03-24T14:45:48.915Z,12.58
2018-03-24T14:46:48.545Z,12.62
2018-03-24T14:48:42.529Z,12.46
2018-03-24T14:49:41.845Z,12.48
2018-03-24T14:51:37.284Z,12.63
2018-03-24T14:52:36.397Z,12.63
2018-03-24T14:54:29.829Z,12.58
2018-03-24T14:55:28.740Z,12.62
2018-03-24T14:57:23.984Z,12.59
2018-03-24T14:58:22.734Z,12.62
2018-03-24T15:00:16.917Z,12.65
2018-03-24T15:01:16.461Z,12.65
2018-03-24T15:03:09.916Z,12.73
2018-03-24T15:04:09.438Z,12.72
2018-03-24T15:06:03.651Z,12.80
2018-03-24T15:07:03.726Z,12.71
2018-03-24T15:08:57.555Z,12.77
2018-03-24T15:09:57.802Z,12.72
2018-03-24T15:11:50.987Z,12.79
2018-03-24T15:12:50.876Z,12.71
2018-03-24T15:14:44.912Z,12.68
2018-03-24T15:15:43.726Z,12.68
2018-03-24T15:17:38.284Z,12.76
2018-03-24T15:18:37.780Z,12.68
2018-03-24T15:20:31.503Z,12.62
2018-03-24T15:21:33.669Z,12.68
2018-03-24T15:23:24.903Z,12.69
2018-03-24T15:24:24.775Z,12.66
2018-03-24T15:26:18.217Z,12.66
2018-03-24T15:27:18.120Z,12.68
2018-03-24T15:29:11.037Z,12.69
2018-03-24T15:30:10.873Z,12.66
2018-03-24T15:32:04.512Z,12.66
2018-03-24T15:33:04.110Z,12.58
2018-03-24T15:34:57.212Z,12.62
2018-03-24T15:35:56.918Z,12.68
2018-03-24T15:37:50.344Z,12.71
2018-03-24T15:38:50.281Z,12.61
2018-03-24T15:40:44.127Z,12.59
2018-03-24T15:41:43.654Z,12.59
2018-03-24T15:43:37.080Z,12.65
2018-03-24T15:44:37.020Z,12.69
2018-03-24T15:46:30.267Z,12.65
2018-03-24T15:47:30.218Z,12.59
2018-03-24T15:49:23.338Z,12.66
2018-03-24T15:50:23.041Z,12.65
2018-03-24T15:52:16.317Z,12.69
2018-03-24T15:53:15.919Z,12.68
2018-03-24T15:55:13.119Z,12.59
2018-03-24T15:56:11.835Z,12.59
2018-03-24T15:58:05.731Z,12.58
2018-03-24T15:59:05.524Z,12.50
2018-03-24T16:00:58.428Z,12.59
2018-03-24T16:01:58.406Z,12.50
2018-03-24T16:03:51.544Z,12.44
2018-03-24T16:04:51.271Z,12.47
2018-03-24T16:06:44.685Z,12.50
2018-03-24T16:07:44.632Z,12.46
2018-03-24T16:09:37.542Z,12.41
2018-03-24T16:10:37.494Z,12.46
2018-03-24T16:12:31.120Z,12.41
2018-03-24T16:13:30.847Z,12.41
2018-03-24T16:15:23.855Z,12.50
2018-03-24T16:16:23.710Z,12.38
2018-03-24T16:18:16.603Z,12.46
2018-03-24T16:19:16.573Z,12.43
2018-03-24T16:21:09.977Z,12.35
2018-03-24T16:22:09.935Z,12.36
2018-03-24T16:24:03.583Z,12.35
2018-03-24T16:25:03.331Z,12.44
2018-03-24T16:26:57.024Z,12.26
2018-03-24T16:27:56.204Z,12.29
2018-03-24T16:29:49.638Z,12.30
2018-03-24T16:30:49.527Z,12.29
2018-03-24T16:32:42.701Z,12.23
2018-03-24T16:33:42.397Z,12.23
2018-03-24T16:35:35.654Z,12.13
2018-03-24T16:36:36.303Z,12.11
2018-03-24T16:38:28.446Z,12.14
2018-03-24T16:39:28.617Z,12.21
2018-03-24T16:41:22.538Z,12.05
2018-03-24T16:42:21.998Z,12.04
2018-03-24T16:44:15.866Z,12.10
2018-03-24T16:45:15.912Z,12.00
2018-03-24T16:47:08.599Z,12.03
2018-03-24T16:48:08.227Z,12.00
2018-03-24T16:50:04.197Z,11.97
2018-03-24T16:51:04.683Z,12.00
2018-03-24T16:53:01.560Z,11.99
2018-03-24T16:54:00.399Z,11.99
2018-03-24T16:55:53.262Z,11.96
2018-03-24T16:56:52.943Z,11.84
2018-03-24T16:58:46.990Z,11.80
2018-03-24T16:59:48.917Z,11.82
2018-03-24T17:01:40.762Z,11.73
2018-03-24T17:02:41.150Z,11.73
2018-03-24T17:04:35.587Z,11.70
2018-03-24T17:05:34.405Z,11.74
2018-03-24T17:07:27.962Z,11.67
2018-03-24T17:08:27.277Z,11.64
2018-03-24T17:10:20.711Z,11.67
2018-03-24T17:11:20.270Z,11.64
2018-03-24T17:13:13.969Z,11.62
2018-03-24T17:14:13.664Z,11.56
2018-03-24T17:16:07.504Z,11.51
2018-03-24T17:17:08.487Z,11.46
2018-03-24T17:19:01.460Z,11.40
2018-03-24T17:20:01.292Z,11.28
2018-03-24T17:21:54.089Z,11.28
2018-03-24T17:22:54.168Z,11.28
2018-03-24T17:24:47.470Z,11.28
2018-03-24T17:25:47.672Z,11.31
2018-03-24T17:27:40.383Z,11.18
2018-03-24T17:28:40.416Z,11.15
2018-03-24T17:30:33.333Z,11.12
2018-03-24T17:31:32.950Z,11.20
2018-03-24T17:33:25.893Z,11.18
2018-03-24T17:34:26.381Z,11.11
2018-03-24T17:36:18.723Z,11.12
2018-03-24T17:37:18.725Z,11.11
2018-03-24T17:39:12.502Z,11.05
2018-03-24T17:40:12.070Z,10.97
2018-03-24T17:42:05.482Z,10.90
2018-03-24T17:43:05.438Z,10.94
2018-03-24T17:44:58.817Z,10.78
2018-03-24T17:45:58.803Z,10.80
2018-03-24T17:47:51.779Z,10.70
2018-03-24T17:48:51.746Z,10.78
2018-03-24T17:50:44.867Z,10.70
2018-03-24T17:51:44.589Z,10.76
2018-03-24T17:53:38.354Z,10.64
2018-03-24T17:54:37.965Z,10.58
2018-03-24T17:56:30.829Z,10.54
2018-03-24T17:57:31.864Z,10.58
2018-03-24T17:59:23.674Z,10.45
2018-03-24T18:00:23.672Z,10.49
2018-03-24T18:02:16.583Z,10.35
2018-03-24T18:03:16.542Z,10.41
2018-03-24T18:05:09.415Z,10.30
2018-03-24T18:06:09.447Z,10.27
2018-03-24T18:08:02.766Z,10.27
2018-03-24T18:09:02.737Z,10.16
2018-03-24T18:10:55.678Z,10.06
2018-03-24T18:11:55.649Z,10.01
2018-03-24T18:13:48.510Z,9.99
2018-03-24T18:14:48.491Z,9.83
2018-03-24T18:16:41.899Z,9.72
2018-03-24T18:17:41.883Z,9.70
2018-03-24T18:19:35.543Z,9.83
2018-03-24T18:20:35.295Z,9.77
2018-03-24T18:22:28.639Z,9.73
2018-03-24T18:23:28.589Z,9.80
2018-03-24T18:25:22.077Z,9.70
2018-03-24T18:26:22.014Z,9.67
2018-03-24T18:28:16.595Z,9.59
2018-03-24T18:29:17.017Z,9.48
2018-03-24T18:31:10.640Z,9.54
2018-03-24T18:32:10.133Z,9.52
2018-03-24T18:34:04.580Z,9.48
2018-03-24T18:35:03.196Z,9.40
2018-03-24T18:36:56.379Z,9.27
2018-03-24T18:37:56.712Z,9.18
2018-03-24T18:39:49.710Z,9.09
2018-03-24T18:40:49.335Z,9.12
2018-03-24T18:42:42.847Z,8.95
2018-03-24T18:43:42.758Z,8.96
2018-03-24T18:45:36.119Z,8.99
2018-03-24T18:46:36.086Z,8.92
2018-03-24T18:48:30.525Z,8.83
2018-03-24T18:49:29.579Z,8.83
2018-03-24T18:51:23.084Z,8.65
2018-03-24T18:52:22.444Z,8.68
2018-03-24T18:54:17.506Z,8.62
2018-03-24T18:55:15.812Z,8.52
2018-03-24T18:57:10.115Z,8.50
2018-03-24T18:58:09.163Z,8.42
2018-03-24T19:00:02.617Z,8.31
2018-03-24T19:01:02.524Z,8.34